Time;durP1;ratioP1;P1;durP2;ratioP2;P2;SDS_P1;SDS_P2;PMS_P1;PMS_P2;Temp;Humidity;BMP_temperature;BMP_pressure;BME280_temperature;BME280_humidity;BME280_pressure;Samples;Min_cycle;Max_cycle;Signal;HPM_P1;HPM_P2
2022/03/06 00:00:17;;;;;;;39.80;28.17;;;;;;;;;;2064250;28;20220;-58
2022/03/06 00:01:18;;;;;;;32.00;23.90;;;;;;;;;;2064283;28;20181;-58
2022/03/06 00:02:18;;;;;;;32.60;24.53;;;;;;;;;;2073175;28;20243;-57
2022/03/06 00:03:18;;;;;;;27.33;23.90;;;;;;;;;;2064367;28;20225;-58
2022/03/06 00:04:20;;;;;;;30.67;22.57;;;;;;;;;;2063847;28;20213;-55
2022/03/06 00:05:21;;;;;;;28.57;22.43;;;;;;;;;;2073266;28;20183;-58
2022/03/06 00:06:22;;;;;;;28.60;22.50;;;;;;;;;;2074047;28;20414;-59
2022/03/06 00:07:22;;;;;;;26.63;21.47;;;;;;;;;;2072974;28;20667;-56
2022/03/06 00:08:22;;;;;;;28.23;22.67;;;;;;;;;;2073914;28;20203;-58
2022/03/06 00:09:23;;;;;;;29.70;21.77;;;;;;;;;;2064266;28;20225;-61
2022/03/06 00:10:23;;;;;;;29.37;23.90;;;;;;;;;;2050331;28;20183;-57
2022/03/06 00:11:23;;;;;;;27.67;22.53;;;;;;;;;;2063111;28;20178;-56
2022/03/06 00:12:24;;;;;;;27.57;21.93;;;;;;;;;;2065099;28;20749;-55
2022/03/06 00:13:24;;;;;;;28.40;23.50;;;;;;;;;;2056722;28;20292;-58
2022/03/06 00:14:24;;;;;;;28.33;21.63;;;;;;;;;;2071184;28;20239;-55
2022/03/06 00:15:26;;;;;;;29.00;21.70;;;;;;;;;;2072639;28;20211;-55
2022/03/06 00:16:26;;;;;;;26.83;22.10;;;;;;;;;;2064265;28;20193;-51
2022/03/06 00:17:26;;;;;;;24.87;20.40;;;;;;;;;;2064642;28;20419;-57
2022/03/06 00:18:27;;;;;;;31.60;22.60;;;;;;;;;;2072641;28;20188;-54
2022/03/06 00:19:27;;;;;;;37.80;25.33;;;;;;;;;;2064548;28;20189;-54
2022/03/06 00:20:27;;;;;;;36.97;25.50;;;;;;;;;;2064819;28;20256;-57
2022/03/06 00:21:27;;;;;;;51.03;32.60;;;;;;;;;;2065389;28;20177;-60
2022/03/06 00:22:28;;;;;;;51.40;31.67;;;;;;;;;;2073205;28;20181;-54
2022/03/06 00:23:29;;;;;;;71.57;41.40;;;;;;;;;;2075072;28;20184;-56
2022/03/06 00:24:29;;;;;;;134.03;63.87;;;;;;;;;;2067915;28;20435;-54
2022/03/06 00:25:30;;;;;;;83.63;46.70;;;;;;;;;;2058909;28;20276;-55
2022/03/06 00:26:30;;;;;;;64.27;37.97;;;;;;;;;;2068162;28;20177;-56
2022/03/06 00:27:30;;;;;;;59.90;34.17;;;;;;;;;;2076217;28;20176;-57
2022/03/06 00:28:31;;;;;;;56.60;33.83;;;;;;;;;;2074561;28;20260;-58
2022/03/06 00:29:31;;;;;;;72.60;40.50;;;;;;;;;;2067409;28;20646;-54
2022/03/06 00:30:31;;;;;;;73.57;38.83;;;;;;;;;;2067136;28;20180;-54
2022/03/06 00:31:31;;;;;;;35.97;25.03;;;;;;;;;;2066705;28;20253;-56
2022/03/06 00:32:32;;;;;;;32.53;24.53;;;;;;;;;;2066770;28;20221;-55
2022/03/06 00:33:32;;;;;;;32.17;23.13;;;;;;;;;;2076107;28;20273;-58
2022/03/06 00:34:33;;;;;;;28.07;22.33;;;;;;;;;;2075000;28;20247;-60
2022/03/06 00:35:34;;;;;;;27.50;22.47;;;;;;;;;;2072371;28;20594;-57
2022/03/06 00:36:37;;;;;;;28.77;22.77;;;;;;;;;;2075245;28;20255;-57
2022/03/06 00:37:37;;;;;;;28.93;22.93;;;;;;;;;;2062730;28;20449;-57
2022/03/06 00:38:38;;;;;;;26.83;22.27;;;;;;;;;;2066421;28;21017;-58
2022/03/06 00:39:39;;;;;;;27.87;21.43;;;;;;;;;;2060838;28;20436;-58
2022/03/06 00:40:42;;;;;;;27.43;21.83;;;;;;;;;;2066151;28;20173;-58
2022/03/06 00:41:42;;;;;;;31.03;22.80;;;;;;;;;;2072971;28;20185;-53
2022/03/06 00:42:42;;;;;;;29.37;21.77;;;;;;;;;;2072698;28;20420;-57
2022/03/06 00:44:46;;;;;;;28.57;22.37;;;;;;;;;;2050311;28;20222;-62
2022/03/06 00:45:47;;;;;;;28.83;22.47;;;;;;;;;;2055091;28;20916;-62
2022/03/06 00:46:47;;;;;;;28.63;22.17;;;;;;;;;;2055911;28;20675;-61
2022/03/06 00:47:48;;;;;;;28.83;22.50;;;;;;;;;;2055718;28;20222;-61
2022/03/06 00:48:48;;;;;;;26.63;21.03;;;;;;;;;;2054451;28;20269;-61
2022/03/06 00:49:48;;;;;;;25.13;21.93;;;;;;;;;;2052343;28;20807;-61
2022/03/06 00:50:48;;;;;;;26.70;22.47;;;;;;;;;;2054980;28;20242;-63
2022/03/06 00:51:49;;;;;;;30.90;22.77;;;;;;;;;;2050639;28;20167;-63
2022/03/06 00:52:49;;;;;;;28.70;22.07;;;;;;;;;;2056073;28;20198;-62
2022/03/06 00:53:49;;;;;;;26.93;21.70;;;;;;;;;;2047992;28;20214;-62
2022/03/06 00:54:50;;;;;;;28.33;22.70;;;;;;;;;;2047337;29;20206;-61
2022/03/06 00:55:50;;;;;;;29.70;21.97;;;;;;;;;;2055969;28;20216;-60
2022/03/06 00:56:50;;;;;;;31.63;24.10;;;;;;;;;;2039719;29;20175;-62
2022/03/06 00:57:50;;;;;;;27.67;22.50;;;;;;;;;;2039777;29;20168;-61
2022/03/06 00:58:51;;;;;;;26.73;21.33;;;;;;;;;;2055496;28;20636;-60
2022/03/06 00:59:51;;;;;;;28.50;21.83;;;;;;;;;;2056032;28;20166;-59
2022/03/06 01:00:51;;;;;;;25.37;21.10;;;;;;;;;;2055674;28;20532;-63
2022/03/06 01:01:52;;;;;;;27.73;23.33;;;;;;;;;;2054521;28;20166;-61
2022/03/06 01:02:52;;;;;;;28.00;23.00;;;;;;;;;;2055506;28;20171;-60
2022/03/06 01:03:52;;;;;;;30.13;21.93;;;;;;;;;;2056301;28;20163;-61
2022/03/06 01:04:53;;;;;;;29.13;21.13;;;;;;;;;;2056388;28;20238;-62
2022/03/06 01:05:53;;;;;;;31.93;23.90;;;;;;;;;;2056801;28;20181;-62
2022/03/06 01:06:53;;;;;;;29.57;24.23;;;;;;;;;;2056065;28;20178;-60
2022/03/06 01:07:54;;;;;;;31.57;22.37;;;;;;;;;;2055721;28;20681;-61
2022/03/06 01:08:54;;;;;;;32.60;25.33;;;;;;;;;;2053543;28;20210;-63
2022/03/06 01:09:54;;;;;;;33.90;24.47;;;;;;;;;;2051325;28;20189;-64
2022/03/06 01:10:55;;;;;;;31.10;23.23;;;;;;;;;;2055442;28;20194;-60
2022/03/06 01:11:55;;;;;;;27.90;21.80;;;;;;;;;;2047376;29;20191;-63
2022/03/06 01:12:56;;;;;;;27.80;20.93;;;;;;;;;;2046905;29;20699;-61
2022/03/06 01:13:57;;;;;;;26.00;20.80;;;;;;;;;;2056085;28;20190;-61
2022/03/06 01:14:58;;;;;;;27.50;21.37;;;;;;;;;;2055418;28;20178;-63
2022/03/06 01:15:59;;;;;;;28.30;22.23;;;;;;;;;;2055645;28;21034;-59
2022/03/06 01:16:59;;;;;;;26.57;21.03;;;;;;;;;;2056504;28;20420;-62
2022/03/06 01:18:00;;;;;;;26.33;22.33;;;;;;;;;;2055057;28;20520;-58
2022/03/06 01:19:00;;;;;;;25.73;20.63;;;;;;;;;;2054139;28;20518;-61
2022/03/06 01:20:00;;;;;;;24.73;20.80;;;;;;;;;;2055071;28;20194;-58
2022/03/06 01:21:01;;;;;;;26.67;21.90;;;;;;;;;;2055841;28;20194;-60
2022/03/06 01:22:01;;;;;;;25.50;21.70;;;;;;;;;;2053656;28;20241;-62
2022/03/06 01:23:02;;;;;;;27.33;21.40;;;;;;;;;;2056095;28;20190;-61
2022/03/06 01:24:02;;;;;;;25.93;21.40;;;;;;;;;;2055484;28;20196;-61
2022/03/06 01:25:03;;;;;;;29.33;22.47;;;;;;;;;;2055845;28;20680;-62
2022/03/06 01:26:03;;;;;;;28.40;22.30;;;;;;;;;;2044334;28;20235;-60
2022/03/06 01:27:04;;;;;;;27.50;23.00;;;;;;;;;;2046800;29;20185;-63
2022/03/06 01:28:04;;;;;;;30.77;23.87;;;;;;;;;;2053919;28;20277;-63
2022/03/06 01:29:05;;;;;;;29.90;22.90;;;;;;;;;;2056280;28;20581;-61
2022/03/06 01:30:07;;;;;;;29.50;23.47;;;;;;;;;;2052567;28;20197;-60
2022/03/06 01:31:07;;;;;;;32.57;25.77;;;;;;;;;;2055298;28;20265;-62
2022/03/06 01:32:07;;;;;;;31.20;23.10;;;;;;;;;;2056489;28;20428;-58
2022/03/06 01:33:07;;;;;;;26.43;21.93;;;;;;;;;;2056623;28;20179;-63
2022/03/06 01:34:08;;;;;;;27.23;23.40;;;;;;;;;;2055322;28;20293;-62
2022/03/06 01:35:08;;;;;;;30.47;23.57;;;;;;;;;;2056513;28;20254;-63
2022/03/06 01:36:08;;;;;;;26.53;22.17;;;;;;;;;;2047711;29;20649;-61
2022/03/06 01:37:09;;;;;;;26.43;22.00;;;;;;;;;;2048239;29;20186;-63
2022/03/06 01:38:09;;;;;;;29.73;23.40;;;;;;;;;;2056633;28;20643;-62
2022/03/06 01:39:10;;;;;;;27.07;22.27;;;;;;;;;;2047730;28;20171;-62
2022/03/06 01:40:11;;;;;;;28.47;23.93;;;;;;;;;;2047959;29;20259;-61
2022/03/06 01:41:11;;;;;;;28.50;23.13;;;;;;;;;;2056198;28;20182;-61
2022/03/06 01:42:11;;;;;;;27.93;23.60;;;;;;;;;;2056213;28;20443;-61
2022/03/06 01:43:11;;;;;;;30.07;24.70;;;;;;;;;;2056647;28;20177;-59
2022/03/06 01:44:13;;;;;;;27.13;22.70;;;;;;;;;;2055752;28;20206;-63
2022/03/06 01:45:14;;;;;;;26.50;23.53;;;;;;;;;;2056699;28;20167;-63
2022/03/06 01:46:15;;;;;;;27.20;22.63;;;;;;;;;;2048606;29;20445;-63
2022/03/06 01:47:30;;;;;;;29.33;23.87;;;;;;;;;;2048682;29;20928;-63
2022/03/06 01:48:30;;;;;;;28.23;22.77;;;;;;;;;;2049798;28;20182;-64
2022/03/06 01:49:30;;;;;;;30.47;23.67;;;;;;;;;;2055437;28;20462;-59
2022/03/06 01:50:35;;;;;;;29.67;23.50;;;;;;;;;;2056505;28;20193;-63
2022/03/06 01:51:35;;;;;;;30.80;23.60;;;;;;;;;;2049661;28;20178;-61
2022/03/06 01:52:35;;;;;;;29.60;23.13;;;;;;;;;;2047304;28;20536;-60
2022/03/06 01:53:35;;;;;;;31.27;23.43;;;;;;;;;;2041331;29;20174;-58
2022/03/06 01:54:36;;;;;;;27.67;23.20;;;;;;;;;;2048891;29;20187;-61
2022/03/06 01:55:36;;;;;;;27.03;23.20;;;;;;;;;;2057715;28;20191;-61
2022/03/06 01:56:37;;;;;;;30.07;23.77;;;;;;;;;;2058208;28;20212;-63
2022/03/06 01:57:38;;;;;;;29.83;22.93;;;;;;;;;;2048872;29;20179;-59
2022/03/06 01:58:39;;;;;;;29.73;22.73;;;;;;;;;;2049428;28;20246;-59
2022/03/06 01:59:39;;;;;;;26.70;22.27;;;;;;;;;;2052189;28;20452;-63
2022/03/06 02:00:44;;;;;;;26.80;22.23;;;;;;;;;;2057274;28;20671;-61
2022/03/06 02:01:44;;;;;;;25.07;20.77;;;;;;;;;;2055045;28;20178;-61
2022/03/06 02:02:45;;;;;;;26.50;21.73;;;;;;;;;;2057134;28;20784;-61
2022/03/06 02:03:45;;;;;;;24.47;21.53;;;;;;;;;;2051413;28;20167;-64
2022/03/06 02:04:45;;;;;;;28.67;22.50;;;;;;;;;;2056684;28;20178;-61
2022/03/06 02:05:45;;;;;;;27.23;21.77;;;;;;;;;;2057858;28;20186;-63
2022/03/06 02:06:46;;;;;;;25.47;22.13;;;;;;;;;;2057178;28;20182;-63
2022/03/06 02:07:46;;;;;;;24.87;21.37;;;;;;;;;;2048805;29;20210;-62
2022/03/06 02:08:47;;;;;;;28.50;23.83;;;;;;;;;;2048945;29;20623;-61
2022/03/06 02:09:47;;;;;;;27.67;22.23;;;;;;;;;;2057649;28;20614;-62
2022/03/06 02:10:49;;;;;;;30.03;22.37;;;;;;;;;;2049022;29;20262;-59
2022/03/06 02:12:21;;;;;;;26.23;22.13;;;;;;;;;;2048817;28;20183;-63
2022/03/06 02:13:09;;;;;;;26.70;21.73;;;;;;;;;;2056505;28;20284;-62
2022/03/06 02:14:10;;;;;;;24.47;21.10;;;;;;;;;;2047906;29;20448;-63
2022/03/06 02:15:11;;;;;;;26.77;21.77;;;;;;;;;;2048293;29;20295;-64
2022/03/06 02:16:11;;;;;;;24.50;21.13;;;;;;;;;;2053521;28;20687;-63
2022/03/06 02:17:12;;;;;;;25.30;20.70;;;;;;;;;;2056747;28;20182;-61
2022/03/06 02:18:12;;;;;;;26.77;22.33;;;;;;;;;;2057174;28;20178;-62
2022/03/06 02:19:15;;;;;;;25.80;21.27;;;;;;;;;;2057088;28;20179;-59
2022/03/06 02:20:19;;;;;;;29.27;22.70;;;;;;;;;;2055379;28;20310;-61
2022/03/06 02:21:19;;;;;;;26.13;22.17;;;;;;;;;;2049180;29;20417;-64
2022/03/06 02:22:21;;;;;;;25.77;20.83;;;;;;;;;;2048731;29;20460;-61
2022/03/06 02:23:21;;;;;;;28.57;21.97;;;;;;;;;;2040809;29;20191;-61
2022/03/06 02:24:21;;;;;;;26.53;22.37;;;;;;;;;;2040871;29;20440;-58
2022/03/06 02:25:29;;;;;;;25.77;22.20;;;;;;;;;;2056819;28;20242;-61
2022/03/06 02:26:30;;;;;;;27.93;21.83;;;;;;;;;;2057131;28;20182;-61
2022/03/06 02:27:31;;;;;;;26.20;20.87;;;;;;;;;;2055663;28;20424;-62
2022/03/06 02:28:31;;;;;;;28.20;20.10;;;;;;;;;;2057559;28;20293;-61
2022/03/06 02:29:31;;;;;;;24.97;20.13;;;;;;;;;;2048624;29;20213;-64
2022/03/06 02:30:33;;;;;;;24.73;21.00;;;;;;;;;;2048973;29;20167;-62
2022/03/06 02:31:33;;;;;;;26.17;20.93;;;;;;;;;;2048758;28;20242;-61
2022/03/06 02:32:34;;;;;;;23.37;20.43;;;;;;;;;;2041417;29;20553;-60
2022/03/06 02:33:34;;;;;;;25.67;21.37;;;;;;;;;;2044946;29;20274;-62
2022/03/06 02:34:35;;;;;;;27.00;21.77;;;;;;;;;;2049164;28;20199;-62
2022/03/06 02:35:36;;;;;;;22.73;19.87;;;;;;;;;;2054177;28;20208;-60
2022/03/06 02:36:36;;;;;;;23.43;20.20;;;;;;;;;;2053857;28;20278;-62
2022/03/06 02:37:36;;;;;;;26.63;21.20;;;;;;;;;;2048653;29;20417;-62
2022/03/06 02:38:37;;;;;;;27.67;21.20;;;;;;;;;;2049266;28;20187;-61
2022/03/06 02:39:37;;;;;;;24.43;21.30;;;;;;;;;;2057323;28;20674;-63
2022/03/06 02:40:41;;;;;;;25.33;21.27;;;;;;;;;;2055736;28;20570;-61
2022/03/06 02:41:41;;;;;;;25.83;20.43;;;;;;;;;;2057231;28;20193;-62
2022/03/06 02:42:43;;;;;;;24.70;21.13;;;;;;;;;;2057570;28;20427;-62
2022/03/06 02:43:44;;;;;;;22.03;19.53;;;;;;;;;;2057407;28;20287;-62
2022/03/06 02:44:44;;;;;;;24.83;20.83;;;;;;;;;;2041268;29;20446;-62
2022/03/06 02:45:44;;;;;;;24.07;19.77;;;;;;;;;;2044667;29;20171;-62
2022/03/06 02:46:45;;;;;;;24.67;21.00;;;;;;;;;;2050808;28;20617;-63
2022/03/06 02:47:46;;;;;;;30.63;21.00;;;;;;;;;;2056757;28;20653;-61
2022/03/06 02:48:46;;;;;;;26.47;20.73;;;;;;;;;;2053105;28;20170;-63
2022/03/06 02:49:46;;;;;;;25.10;20.70;;;;;;;;;;2057304;28;20185;-58
2022/03/06 02:50:47;;;;;;;26.00;20.80;;;;;;;;;;2057543;28;20194;-61
2022/03/06 02:51:47;;;;;;;21.77;19.10;;;;;;;;;;2057522;28;20190;-62
2022/03/06 02:52:48;;;;;;;22.40;19.90;;;;;;;;;;2056961;28;20272;-60
2022/03/06 02:53:48;;;;;;;24.73;20.27;;;;;;;;;;2057264;28;20190;-59
2022/03/06 02:54:48;;;;;;;23.07;19.87;;;;;;;;;;2048689;29;20280;-60
2022/03/06 02:55:49;;;;;;;23.97;21.30;;;;;;;;;;2048599;29;20202;-60
2022/03/06 02:56:49;;;;;;;25.07;21.53;;;;;;;;;;2049230;29;20266;-62
2022/03/06 02:57:49;;;;;;;25.33;20.93;;;;;;;;;;2033121;29;20264;-62
2022/03/06 02:58:50;;;;;;;24.13;19.77;;;;;;;;;;2038371;29;20196;-63
2022/03/06 02:59:50;;;;;;;23.40;19.30;;;;;;;;;;2049676;29;20209;-62
2022/03/06 03:00:50;;;;;;;23.00;20.37;;;;;;;;;;2053050;28;20217;-63
2022/03/06 03:01:51;;;;;;;23.60;19.47;;;;;;;;;;2057546;28;20701;-61
2022/03/06 03:02:51;;;;;;;22.47;19.07;;;;;;;;;;2057056;28;20249;-63
2022/03/06 03:03:52;;;;;;;25.73;19.33;;;;;;;;;;2048878;28;20254;-60
2022/03/06 03:04:52;;;;;;;22.40;18.93;;;;;;;;;;2049007;29;20171;-60
2022/03/06 03:05:52;;;;;;;21.87;18.87;;;;;;;;;;2057551;28;20178;-61
2022/03/06 03:06:53;;;;;;;22.40;18.40;;;;;;;;;;2057645;28;20194;-63
2022/03/06 03:07:53;;;;;;;20.70;18.53;;;;;;;;;;2057613;28;20257;-61
2022/03/06 03:08:53;;;;;;;24.17;20.47;;;;;;;;;;2057333;28;20221;-62
2022/03/06 03:09:53;;;;;;;22.87;19.20;;;;;;;;;;2057664;28;20174;-62
2022/03/06 03:10:54;;;;;;;22.07;18.87;;;;;;;;;;2057436;28;20182;-63
2022/03/06 03:11:55;;;;;;;25.30;19.37;;;;;;;;;;2057799;28;20262;-63
2022/03/06 03:12:55;;;;;;;24.17;18.97;;;;;;;;;;2057884;28;20202;-61
2022/03/06 03:13:56;;;;;;;21.63;18.73;;;;;;;;;;2053215;28;20225;-60
2022/03/06 03:14:56;;;;;;;22.53;19.63;;;;;;;;;;2057093;28;20178;-61
2022/03/06 03:15:57;;;;;;;21.63;19.27;;;;;;;;;;2051809;28;20229;-60
2022/03/06 03:16:58;;;;;;;22.03;19.03;;;;;;;;;;2056313;28;20175;-60
2022/03/06 03:17:58;;;;;;;23.83;19.73;;;;;;;;;;2051868;28;20420;-62
2022/03/06 03:18:59;;;;;;;23.87;21.07;;;;;;;;;;2055725;28;20171;-61
2022/03/06 03:19:59;;;;;;;23.97;19.37;;;;;;;;;;2039974;29;20172;-63
2022/03/06 03:20:59;;;;;;;26.37;20.03;;;;;;;;;;2040696;29;20242;-61
2022/03/06 03:22:00;;;;;;;23.97;20.77;;;;;;;;;;2057328;28;20185;-60
2022/03/06 03:23:00;;;;;;;24.57;20.83;;;;;;;;;;2056343;28;20200;-62
2022/03/06 03:24:01;;;;;;;22.23;19.77;;;;;;;;;;2054269;28;20209;-61
2022/03/06 03:25:02;;;;;;;24.40;20.37;;;;;;;;;;2052203;28;20174;-58
2022/03/06 03:26:02;;;;;;;24.93;20.60;;;;;;;;;;2046025;29;20266;-62
2022/03/06 03:27:02;;;;;;;24.33;20.40;;;;;;;;;;2035520;29;20266;-60
2022/03/06 03:28:03;;;;;;;25.67;20.20;;;;;;;;;;2044035;29;20187;-62
2022/03/06 03:29:03;;;;;;;27.20;22.20;;;;;;;;;;2043878;29;20214;-61
2022/03/06 03:30:07;;;;;;;24.77;20.93;;;;;;;;;;2048043;29;20187;-62
2022/03/06 03:31:07;;;;;;;26.70;20.23;;;;;;;;;;2056704;28;20194;-62
2022/03/06 03:32:08;;;;;;;23.97;20.27;;;;;;;;;;2056969;28;20424;-62
2022/03/06 03:33:08;;;;;;;25.33;20.50;;;;;;;;;;2053081;28;20187;-64
2022/03/06 03:34:08;;;;;;;25.93;20.83;;;;;;;;;;2044358;28;20219;-61
2022/03/06 03:35:09;;;;;;;25.07;21.07;;;;;;;;;;2044988;29;20186;-61
2022/03/06 03:36:09;;;;;;;26.30;20.17;;;;;;;;;;2046715;29;20207;-62
2022/03/06 03:37:09;;;;;;;25.57;19.63;;;;;;;;;;2047117;29;20262;-62
2022/03/06 03:38:09;;;;;;;26.10;20.80;;;;;;;;;;2053193;28;20166;-63
2022/03/06 03:39:10;;;;;;;22.53;19.80;;;;;;;;;;2053015;28;20182;-63
2022/03/06 03:40:11;;;;;;;24.23;19.13;;;;;;;;;;2051004;28;20201;-60
2022/03/06 03:41:11;;;;;;;23.10;20.20;;;;;;;;;;2057091;28;20189;-64
2022/03/06 03:42:11;;;;;;;26.23;20.20;;;;;;;;;;2054205;28;20265;-63
2022/03/06 03:43:11;;;;;;;24.43;20.23;;;;;;;;;;2045260;29;20189;-61
2022/03/06 03:44:12;;;;;;;25.20;20.03;;;;;;;;;;2039487;29;20551;-63
2022/03/06 03:45:12;;;;;;;22.17;19.77;;;;;;;;;;2044990;28;20210;-59
2022/03/06 03:46:12;;;;;;;21.93;19.53;;;;;;;;;;2056017;28;20208;-61
2022/03/06 03:47:13;;;;;;;24.53;19.87;;;;;;;;;;2056288;28;20194;-62
2022/03/06 03:48:13;;;;;;;26.83;19.77;;;;;;;;;;2056383;28;20174;-61
2022/03/06 03:49:16;;;;;;;23.50;19.60;;;;;;;;;;2056225;28;20178;-61
2022/03/06 03:50:16;;;;;;;24.03;20.00;;;;;;;;;;2055892;28;20190;-63
2022/03/06 03:51:17;;;;;;;27.70;21.53;;;;;;;;;;2047740;29;20455;-64
2022/03/06 03:52:17;;;;;;;24.57;20.20;;;;;;;;;;2049408;28;20250;-62
2022/03/06 03:53:17;;;;;;;25.57;20.17;;;;;;;;;;2056537;28;20206;-61
2022/03/06 03:54:18;;;;;;;28.93;22.07;;;;;;;;;;2051307;28;20202;-64
2022/03/06 03:55:18;;;;;;;21.90;19.50;;;;;;;;;;2056339;28;20333;-60
2022/03/06 03:56:21;;;;;;;23.70;20.70;;;;;;;;;;2055625;28;20608;-62
2022/03/06 03:57:23;;;;;;;24.77;20.40;;;;;;;;;;2056192;28;20178;-62
2022/03/06 03:58:23;;;;;;;24.23;20.97;;;;;;;;;;2056207;28;20753;-63
2022/03/06 03:59:24;;;;;;;26.17;20.40;;;;;;;;;;2055338;28;20447;-62
2022/03/06 04:00:24;;;;;;;23.93;19.97;;;;;;;;;;2047351;29;20265;-62
2022/03/06 04:01:24;;;;;;;23.93;19.63;;;;;;;;;;2047728;29;20187;-63
2022/03/06 04:02:24;;;;;;;27.10;20.80;;;;;;;;;;2055904;28;20265;-61
2022/03/06 04:03:25;;;;;;;27.13;20.47;;;;;;;;;;2056234;28;20186;-60
2022/03/06 04:04:26;;;;;;;27.67;20.50;;;;;;;;;;2055764;28;20198;-55
2022/03/06 04:05:26;;;;;;;24.30;21.00;;;;;;;;;;2056439;28;20186;-59
2022/03/06 04:06:26;;;;;;;24.23;20.10;;;;;;;;;;2055268;28;20553;-61
2022/03/06 04:07:27;;;;;;;23.60;20.00;;;;;;;;;;2055927;28;20174;-61
2022/03/06 04:08:27;;;;;;;24.90;19.67;;;;;;;;;;2055884;28;20166;-62
2022/03/06 04:09:27;;;;;;;24.40;19.27;;;;;;;;;;2048189;29;20601;-59
2022/03/06 04:10:27;;;;;;;24.83;19.93;;;;;;;;;;2048531;29;20175;-63
2022/03/06 04:11:28;;;;;;;22.80;19.03;;;;;;;;;;2051711;28;20538;-63
2022/03/06 04:12:28;;;;;;;26.73;20.17;;;;;;;;;;2055630;28;20171;-58
2022/03/06 04:13:28;;;;;;;23.63;19.83;;;;;;;;;;2053676;28;20180;-60
2022/03/06 04:14:29;;;;;;;24.53;20.03;;;;;;;;;;2046605;28;20202;-61
2022/03/06 04:15:29;;;;;;;24.13;20.10;;;;;;;;;;2047553;29;20195;-61
2022/03/06 04:16:29;;;;;;;24.10;20.10;;;;;;;;;;2056165;28;20178;-62
2022/03/06 04:17:29;;;;;;;27.07;20.37;;;;;;;;;;2056525;28;20174;-60
2022/03/06 04:18:30;;;;;;;24.90;20.60;;;;;;;;;;2056037;28;20174;-61
2022/03/06 04:19:30;;;;;;;25.73;21.13;;;;;;;;;;2052229;28;20317;-62
2022/03/06 04:20:30;;;;;;;26.00;21.13;;;;;;;;;;2056206;28;20240;-61
2022/03/06 04:21:31;;;;;;;23.20;19.87;;;;;;;;;;2056863;28;20182;-60
2022/03/06 04:22:31;;;;;;;24.70;20.00;;;;;;;;;;2052612;28;20229;-61
2022/03/06 04:23:31;;;;;;;24.17;20.17;;;;;;;;;;2055615;28;20186;-61
2022/03/06 04:24:31;;;;;;;24.23;20.53;;;;;;;;;;2047020;28;20212;-60
2022/03/06 04:25:31;;;;;;;28.20;21.20;;;;;;;;;;2047910;29;20658;-63
2022/03/06 04:26:32;;;;;;;26.20;20.67;;;;;;;;;;2055960;28;20186;-60
2022/03/06 04:27:32;;;;;;;25.67;20.23;;;;;;;;;;2056834;28;20245;-63
2022/03/06 04:28:32;;;;;;;25.67;19.10;;;;;;;;;;2056772;28;20213;-60
2022/03/06 04:29:32;;;;;;;27.90;20.17;;;;;;;;;;2056093;28;20584;-60
2022/03/06 04:30:33;;;;;;;24.17;20.30;;;;;;;;;;2052173;28;20568;-59
2022/03/06 04:31:33;;;;;;;24.07;19.73;;;;;;;;;;2056604;28;20177;-61
2022/03/06 04:32:33;;;;;;;23.00;19.13;;;;;;;;;;2056606;28;20304;-62
2022/03/06 04:33:34;;;;;;;23.27;19.43;;;;;;;;;;2056124;28;20213;-61
2022/03/06 04:34:35;;;;;;;23.97;19.17;;;;;;;;;;2055708;28;20252;-61
2022/03/06 04:35:35;;;;;;;24.70;20.23;;;;;;;;;;2048904;28;20273;-61
2022/03/06 04:36:35;;;;;;;27.13;20.10;;;;;;;;;;2056384;28;20408;-63
2022/03/06 04:37:36;;;;;;;21.77;19.47;;;;;;;;;;2041465;29;20624;-62
2022/03/06 04:38:36;;;;;;;25.00;20.67;;;;;;;;;;2047807;29;20576;-61
2022/03/06 04:39:37;;;;;;;25.10;19.27;;;;;;;;;;2054956;28;20246;-57
2022/03/06 04:40:37;;;;;;;26.37;19.97;;;;;;;;;;2056072;28;20189;-60
2022/03/06 04:41:37;;;;;;;26.23;20.30;;;;;;;;;;2048894;28;20182;-61
2022/03/06 04:42:37;;;;;;;25.90;19.60;;;;;;;;;;2055988;28;20476;-60
2022/03/06 04:43:38;;;;;;;22.70;19.47;;;;;;;;;;2049138;28;20190;-58
2022/03/06 04:44:39;;;;;;;21.53;17.67;;;;;;;;;;2055364;28;20255;-61
2022/03/06 04:45:39;;;;;;;25.10;19.07;;;;;;;;;;2047017;28;20190;-62
2022/03/06 04:46:39;;;;;;;25.77;20.77;;;;;;;;;;2040830;29;20258;-62
2022/03/06 04:47:39;;;;;;;26.07;20.87;;;;;;;;;;2047300;29;20210;-61
2022/03/06 04:48:40;;;;;;;21.93;18.67;;;;;;;;;;2047724;29;20179;-58
2022/03/06 04:49:40;;;;;;;22.93;18.43;;;;;;;;;;2055345;28;20280;-62
2022/03/06 04:50:40;;;;;;;24.57;19.13;;;;;;;;;;2056183;28;20182;-62
2022/03/06 04:51:41;;;;;;;25.03;19.17;;;;;;;;;;2055777;28;20551;-61
2022/03/06 04:52:41;;;;;;;23.93;19.90;;;;;;;;;;2056114;28;20266;-61
2022/03/06 04:53:42;;;;;;;23.90;19.17;;;;;;;;;;2054238;28;20261;-61
2022/03/06 04:54:43;;;;;;;22.60;19.83;;;;;;;;;;2039341;29;20187;-62
2022/03/06 04:55:43;;;;;;;24.67;21.63;;;;;;;;;;2039561;29;20560;-62
2022/03/06 04:56:43;;;;;;;24.50;19.63;;;;;;;;;;2047567;29;20182;-63
2022/03/06 04:57:46;;;;;;;24.40;19.40;;;;;;;;;;2054486;28;20282;-61
2022/03/06 04:58:46;;;;;;;21.47;18.80;;;;;;;;;;2055623;28;20277;-64
2022/03/06 04:59:46;;;;;;;23.43;19.83;;;;;;;;;;2055934;28;20446;-63
2022/03/06 05:00:47;;;;;;;25.13;20.67;;;;;;;;;;2055862;28;20229;-63
2022/03/06 05:01:47;;;;;;;25.60;19.43;;;;;;;;;;2043952;29;20314;-64
2022/03/06 05:02:47;;;;;;;23.60;18.57;;;;;;;;;;2046833;29;20338;-62
2022/03/06 05:03:47;;;;;;;23.70;19.97;;;;;;;;;;2056265;28;20177;-61
2022/03/06 05:04:48;;;;;;;23.30;17.93;;;;;;;;;;2054805;28;20265;-62
2022/03/06 05:05:48;;;;;;;23.40;19.07;;;;;;;;;;2056231;28;20170;-62
2022/03/06 05:06:49;;;;;;;23.00;18.50;;;;;;;;;;2047165;29;20227;-64
2022/03/06 05:07:49;;;;;;;26.83;20.93;;;;;;;;;;2047922;29;20189;-64
2022/03/06 05:08:49;;;;;;;25.40;18.90;;;;;;;;;;2053931;28;20262;-62
2022/03/06 05:09:50;;;;;;;23.30;19.00;;;;;;;;;;2047270;29;20189;-62
2022/03/06 05:10:50;;;;;;;24.30;18.33;;;;;;;;;;2047875;29;20179;-62
2022/03/06 05:11:50;;;;;;;23.17;18.37;;;;;;;;;;2055707;28;20209;-62
2022/03/06 05:12:50;;;;;;;25.60;18.87;;;;;;;;;;2056491;28;20186;-60
2022/03/06 05:13:51;;;;;;;24.03;19.57;;;;;;;;;;2047710;28;20198;-63
2022/03/06 05:14:51;;;;;;;24.63;18.83;;;;;;;;;;2045275;29;20179;-63
2022/03/06 05:15:52;;;;;;;24.60;19.47;;;;;;;;;;2055571;28;20194;-62
2022/03/06 05:16:52;;;;;;;22.50;19.33;;;;;;;;;;2057294;28;20182;-64
2022/03/06 05:17:52;;;;;;;24.87;20.33;;;;;;;;;;2052118;28;20198;-61
2022/03/06 05:18:53;;;;;;;23.60;18.83;;;;;;;;;;2047525;29;20175;-62
2022/03/06 05:19:53;;;;;;;24.87;19.53;;;;;;;;;;2046263;29;20231;-61
2022/03/06 05:20:53;;;;;;;27.23;18.83;;;;;;;;;;2056581;28;20254;-60
2022/03/06 05:21:53;;;;;;;23.63;19.50;;;;;;;;;;2055774;28;20183;-61
2022/03/06 05:22:54;;;;;;;22.67;18.50;;;;;;;;;;2056902;28;20177;-62
2022/03/06 05:23:54;;;;;;;23.40;18.70;;;;;;;;;;2055044;28;20233;-63
2022/03/06 05:24:54;;;;;;;22.37;18.70;;;;;;;;;;2056661;28;20194;-62
2022/03/06 05:25:54;;;;;;;20.70;17.97;;;;;;;;;;2054473;28;20178;-64
2022/03/06 05:26:55;;;;;;;21.00;18.47;;;;;;;;;;2058229;28;20200;-63
2022/03/06 05:27:55;;;;;;;22.40;18.03;;;;;;;;;;2056313;28;20273;-62
2022/03/06 05:28:56;;;;;;;27.43;19.20;;;;;;;;;;2058828;28;20663;-62
2022/03/06 05:29:56;;;;;;;24.97;20.07;;;;;;;;;;2055445;28;20180;-63
2022/03/06 05:30:56;;;;;;;22.00;18.87;;;;;;;;;;2050024;29;20210;-62
2022/03/06 05:31:56;;;;;;;24.90;19.27;;;;;;;;;;2048923;29;20199;-63
2022/03/06 05:32:57;;;;;;;24.00;18.80;;;;;;;;;;2055270;28;20175;-62
2022/03/06 05:33:57;;;;;;;22.17;19.63;;;;;;;;;;2054036;28;20291;-61
2022/03/06 05:34:58;;;;;;;22.93;19.07;;;;;;;;;;2058358;28;20189;-61
2022/03/06 05:35:58;;;;;;;24.63;19.33;;;;;;;;;;2054886;28;20301;-64
2022/03/06 05:36:58;;;;;;;22.47;18.57;;;;;;;;;;2059463;28;20202;-62
2022/03/06 05:37:58;;;;;;;21.87;18.00;;;;;;;;;;2054639;28;20177;-56
2022/03/06 05:38:59;;;;;;;22.17;19.33;;;;;;;;;;2058606;28;20189;-60
2022/03/06 05:39:59;;;;;;;22.97;18.30;;;;;;;;;;2058268;28;20265;-60
2022/03/06 05:40:59;;;;;;;22.47;18.70;;;;;;;;;;2058404;28;20174;-59
2022/03/06 05:41:59;;;;;;;24.37;19.63;;;;;;;;;;2058998;28;20212;-61
2022/03/06 05:43:00;;;;;;;22.33;18.50;;;;;;;;;;2056316;28;20175;-61
2022/03/06 05:44:00;;;;;;;21.70;17.50;;;;;;;;;;2058160;28;20198;-59
2022/03/06 05:45:00;;;;;;;22.20;17.87;;;;;;;;;;2057561;28;20178;-60
2022/03/06 05:46:02;;;;;;;21.43;18.47;;;;;;;;;;2054171;28;20209;-61
2022/03/06 05:47:02;;;;;;;22.63;18.37;;;;;;;;;;2056768;28;20643;-61
2022/03/06 05:48:02;;;;;;;20.87;17.97;;;;;;;;;;2045951;29;20607;-61
2022/03/06 05:49:12;;;;;;;21.70;17.97;;;;;;;;;;2049036;29;20186;-63
2022/03/06 05:50:12;;;;;;;19.50;17.47;;;;;;;;;;2057770;28;20628;-61
2022/03/06 05:51:13;;;;;;;25.30;19.03;;;;;;;;;;2053415;28;20448;-63
2022/03/06 05:52:13;;;;;;;23.40;18.33;;;;;;;;;;2055721;28;20569;-63
2022/03/06 05:53:14;;;;;;;23.20;18.43;;;;;;;;;;2054285;28;20225;-62